• Join FlightAware (Why Join?)
  • Login
  • US Flag 
03:14PM EDT


 

Airport Tracker/Info


-or-


 

Live Flight TrackerFlight Track Log ✈ UAL3589 ✈ 18-Jun-2014 ✈ KIAD - KROC

Flight Track Log - Related Links

Times and Time Zones

All times are in EDT time to prevent confusion due to time zone crossing. See the UAL3589 flight status page for this flight to view local times or setup timezone preferences in your user account.

Time Position Orientation Groundspeed Altitude Reporting Facility
EDT Latitude Longitude Course Direction KTS MPH feet Rate Location/Type
08:31AM 38.9833 -77.4500 339° North 134 154 1,400  Level Potomac TRACON
08:32AM 39.0167 -77.4667 339° North 150 173 2,600 1,200 Climbing Potomac TRACON
08:33AM 39.0500 -77.4833 339° North 144 166 3,800 1,200 Climbing Potomac TRACON
08:35AM 39.1250 -77.5314 334° Northwest 155 178 6,300 1,320 Climbing Washington Center
08:36AM 39.1581 -77.5511 335° Northwest 144 166 7,800 1,320 Climbing Washington Center
08:37AM 39.1931 -77.5706 337° Northwest 139 160 8,900 1,020 Climbing Washington Center
08:38AM 39.2325 -77.5906 339° North 148 170 9,900 960 Climbing Washington Center
08:39AM 39.2825 -77.5839 North 155 178 10,900 1,020 Climbing Washington Center
08:40AM 39.3328 -77.5664 15° North 162 186 12,000 960 Climbing Washington Center
08:41AM 39.3853 -77.5464 16° North 174 200 12,900 900 Climbing Washington Center
08:42AM 39.4397 -77.5264 16° North 185 213 13,800 780 Climbing Washington Center
08:43AM 39.4922 -77.5089 14° North 190 219 14,600 840 Climbing Washington Center
08:44AM 39.5444 -77.4914 14° North 190 219 15,500 780 Climbing Washington Center
08:46AM 39.6678 -77.4517 14° North 192 221 17,300 720 Climbing New York Center
08:47AM 39.7242 -77.4517 360° North 187 215 18,000 300 Climbing New York Center
08:48AM 39.7783 -77.4514 360° North 204 235 18,000  Level New York Center
08:49AM 39.8514 -77.4503 North 222 255 18,000  Level New York Center
08:50AM 39.9119 -77.4506 360° North 235 270 18,000  Level New York Center
08:51AM 39.9892 -77.4500 360° North 240 276 18,000  Level New York Center
08:52AM 40.0517 -77.4506 360° North 245 282 18,000  Level New York Center
08:53AM 40.1289 -77.4497 360° North 250 288 18,000  Level New York Center
08:54AM 40.1936 -77.4478 North 256 295 18,000  Level New York Center
08:55AM 40.2708 -77.4444 North 256 295 18,000  Level New York Center
08:56AM 40.3356 -77.4453 359° North 256 295 18,000  Level New York Center
08:57AM 40.4147 -77.4447 360° North 256 295 18,000  Level New York Center
08:58AM 40.4772 -77.4425 North 256 295 18,000  Level New York Center
08:59AM 40.5544 -77.4417 360° North 256 295 18,000  Level New York Center
09:00AM 40.6214 -77.4400 North 256 295 18,000  Level New York Center
09:01AM 40.6922 -77.4386 North 256 295 18,000  Level New York Center
09:02AM 40.7614 -77.4317 North 256 295 18,000  Level New York Center
09:03AM 40.8283 -77.4097 14° North 256 295 18,000  Level Cleveland Center
09:04AM 40.8986 -77.4075 North 256 295 18,000  Level Cleveland Center
09:05AM 40.9672 -77.4175 354° North 253 291 18,000  Level Cleveland Center
09:06AM 41.0367 -77.4264 354° North 253 291 18,000  Level Cleveland Center
09:07AM 41.1197 -77.4347 356° North 253 291 18,000  Level Cleveland Center
09:08AM 41.1875 -77.4428 355° North 251 289 18,000  Level Cleveland Center
09:09AM 41.2542 -77.4506 355° North 245 282 18,000  Level Cleveland Center
09:10AM 41.3211 -77.4581 355° North 243 280 18,000  Level Cleveland Center
09:11AM 41.3872 -77.4661 355° North 243 280 18,000  Level Cleveland Center
09:12AM 41.4678 -77.4747 355° North 243 280 18,000  Level Cleveland Center
09:13AM 41.5353 -77.4833 355° North 243 280 18,000  Level Cleveland Center
09:14AM 41.6017 -77.4897 356° North 242 278 18,000  Level Cleveland Center
09:15AM 41.6658 -77.4983 354° North 242 278 18,000  Level Cleveland Center
09:16AM 41.7486 -77.5083 355° North 243 280 18,000  Level Cleveland Center
09:17AM 41.8153 -77.5142 356° North 243 280 18,000  Level Cleveland Center
09:19AM 41.8828 -77.5244 354° North 243 280 18,000 -360 Level Cleveland Center
09:20AM 41.9522 -77.5322 355° North 252 290 17,300 -780 Descending Cleveland Center
09:21AM 42.0289 -77.5425 354° North 271 312 16,500 -780 Descending Cleveland Center
09:22AM 42.1075 -77.5503 356° North 277 319 15,700 -900 Descending Cleveland Center
09:23AM 42.2014 -77.5622 355° North 281 323 14,700 -900 Descending Cleveland Center
09:23AM 42.2658 -77.5700 355° North 282 325 14,100 -780 Descending Cleveland Center
09:24AM 42.2808 -77.5714 356° North 282 325 13,900 -1,020 Descending Cleveland Center
09:24AM 42.3056 -77.5744 355° North 282 325 13,600 -780 Descending Cleveland Center
09:25AM 42.3578 -77.5803 355° North 282 325 13,100 -840 Descending Cleveland Center
09:25AM 42.3828 -77.5833 355° North 279 321 12,800 -780 Descending Cleveland Center
09:26AM 42.4342 -77.5869 357° North 280 322 12,300 -840 Descending Cleveland Center
09:26AM 42.4597 -77.5803 11° North 275 316 12,000 -780 Descending Cleveland Center
09:27AM 42.5103 -77.5731 North 278 320 11,500 -900 Descending Cleveland Center
09:27AM 42.5378 -77.5692 North 260 299 11,100 -1,380 Descending Cleveland Center
09:28AM 42.5947 -77.5639 North 261 300 10,100 -1,320 Descending Cleveland Center
09:28AM 42.6108 -77.5625 North 257 296 9,800 -1,200 Descending Cleveland Center
09:29AM 42.6675 -77.5569 North 261 300 8,900 -1,200 Descending Cleveland Center
09:29AM 42.6819 -77.5553 North 260 299 8,600 -1,080 Descending Cleveland Center
09:30AM 42.7350 -77.5478 North 261 300 7,800 -1,200 Descending Cleveland Center
09:30AM 42.7556 -77.5456 North 264 304 7,400 -1,200 Descending Cleveland Center
09:31AM 42.8047 -77.5250 17° North 261 300 6,600 -1,080 Descending Cleveland Center
09:32AM 42.8739 -77.5031 13° North 260 299 5,400 -1,380 Descending Cleveland Center
09:32AM 42.9022 -77.4975 North 253 291 4,900 -1,380 Descending Cleveland Center
09:33AM 42.9572 -77.4797 13° North 259 298 4,000 -900 Descending Cleveland Center
09:33AM 42.9733 -77.4758 10° North 251 289 4,000 -420 Level Cleveland Center
09:34AM 43.0217 -77.4614 12° North 246 283 3,600 -600 Descending Cleveland Center
09:34AM 43.0375 -77.4578 North 232 267 3,400 -1,020 Descending Cleveland Center
09:35AM 43.0872 -77.4631 356° North 245 282 2,600 -480 Descending Cleveland Center
09:36AM 43.1472 -77.4925 340° North 236 272 2,500 -180 Descending Cleveland Center
09:37AM 43.1644 -77.5808 285° West 210 242 2,300 -540 Descending Cleveland Center
09:38AM 43.1528 -77.6378 254° West 197 227 1,400 -840 Descending Cleveland Center
09:39AM 43.1297 -77.6686 224° Southwest 146 168 700 -780 Descending Cleveland Center
09:39AM 43.1233 -77.6744 214° Southwest 113 130 500 -240 Descending Cleveland Center
09:40AM 43.1061 -77.6958 222° Southwest 139 160 500  Level Cleveland Center